Time;durP1;ratioP1;P1;durP2;ratioP2;P2;SDS_P1;SDS_P2;PMS_P1;PMS_P2;Temp;Humidity;BMP_temperature;BMP_pressure;BME280_temperature;BME280_humidity;BME280_pressure;Samples;Min_cycle;Max_cycle;Signal;HPM_P1;HPM_P2
2022/03/23 00:00:49;;;;;;;64.15;32.17;;;9.50;99.90;;;;;;4984870;28;20089;-71
2022/03/23 00:03:15;;;;;;;64.55;32.70;;;9.40;99.90;;;;;;4992277;28;20033;-71
2022/03/23 00:05:41;;;;;;;62.78;32.35;;;9.40;99.90;;;;;;4992582;28;20026;-71
2022/03/23 00:08:08;;;;;;;66.38;32.33;;;9.40;99.90;;;;;;4989743;28;20035;-71
2022/03/23 00:10:34;;;;;;;63.90;31.27;;;9.30;99.90;;;;;;4974811;28;20030;-71
2022/03/23 00:13:00;;;;;;;61.47;31.45;;;9.30;99.90;;;;;;4975450;28;20488;-71
2022/03/23 00:15:27;;;;;;;60.97;32.20;;;9.20;99.90;;;;;;4974903;28;20058;-71
2022/03/23 00:17:53;;;;;;;65.97;30.98;;;9.20;99.90;;;;;;4976071;28;20058;-71
2022/03/23 00:20:19;;;;;;;62.25;31.02;;;9.20;99.90;;;;;;4994432;28;20138;-72
2022/03/23 00:22:45;;;;;;;64.38;31.90;;;9.10;99.90;;;;;;4993893;28;20133;-71
2022/03/23 00:25:11;;;;;;;65.30;32.22;;;9.10;99.90;;;;;;4993861;28;20030;-71
2022/03/23 00:27:36;;;;;;;62.33;30.70;;;9.10;99.90;;;;;;4987329;28;20015;-71
2022/03/23 00:30:03;;;;;;;65.43;31.88;;;9.00;99.90;;;;;;4974640;28;20058;-71
2022/03/23 00:32:28;;;;;;;64.63;31.02;;;9.00;99.90;;;;;;4980486;28;20537;-71
2022/03/23 00:34:54;;;;;;;60.10;31.42;;;9.00;99.90;;;;;;4992993;28;20022;-72
2022/03/23 00:37:20;;;;;;;64.30;31.88;;;8.90;99.90;;;;;;4991233;28;20026;-71
2022/03/23 00:39:46;;;;;;;59.63;30.48;;;8.90;99.90;;;;;;4958037;28;20031;-71
2022/03/23 00:42:11;;;;;;;58.47;30.98;;;8.90;99.90;;;;;;4985608;28;20045;-71
2022/03/23 00:44:37;;;;;;;57.15;30.73;;;8.90;99.90;;;;;;4992359;28;20030;-71
2022/03/23 00:47:03;;;;;;;61.65;32.75;;;8.80;99.90;;;;;;4969350;28;20023;-71
2022/03/23 00:49:28;;;;;;;57.85;30.27;;;8.80;99.90;;;;;;4976531;28;20502;-71
2022/03/23 00:51:56;;;;;;;60.30;31.27;;;8.80;99.90;;;;;;4977656;28;20023;-71
2022/03/23 00:54:22;;;;;;;60.78;31.48;;;8.80;99.90;;;;;;4974558;28;20051;-71
2022/03/23 00:56:50;;;;;;;63.22;31.88;;;8.70;99.90;;;;;;4974628;28;20046;-72
2022/03/23 00:59:17;;;;;;;64.43;30.60;;;8.70;99.90;;;;;;4988591;28;20018;-71
2022/03/23 01:01:45;;;;;;;64.20;31.50;;;8.70;99.90;;;;;;4988971;28;20085;-71
2022/03/23 01:04:11;;;;;;;61.67;30.02;;;8.70;99.90;;;;;;4983114;28;20026;-71
2022/03/23 01:06:37;;;;;;;62.53;31.38;;;8.60;99.90;;;;;;4977713;28;20033;-71
2022/03/23 01:09:02;;;;;;;59.05;29.90;;;8.50;99.90;;;;;;4984977;28;20019;-71
2022/03/23 01:11:28;;;;;;;60.78;30.05;;;8.50;99.90;;;;;;4983537;28;20035;-71
2022/03/23 01:13:54;;;;;;;57.00;30.30;;;8.50;99.90;;;;;;4977979;28;20169;-71
2022/03/23 01:16:19;;;;;;;59.45;29.67;;;8.50;99.90;;;;;;4973841;28;20084;-71
2022/03/23 01:18:45;;;;;;;64.88;31.02;;;8.40;99.90;;;;;;4981261;28;20054;-72
2022/03/23 01:21:12;;;;;;;59.53;30.73;;;8.40;99.90;;;;;;4992902;28;20026;-70
2022/03/23 01:23:37;;;;;;;63.60;32.45;;;8.40;99.90;;;;;;4975593;28;20027;-71
2022/03/23 01:26:04;;;;;;;63.58;31.10;;;8.40;99.90;;;;;;4975106;28;20038;-69
2022/03/23 01:28:29;;;;;;;64.13;31.20;;;8.40;99.90;;;;;;4982942;28;20112;-70
2022/03/23 01:30:55;;;;;;;60.03;30.27;;;8.40;99.90;;;;;;4992631;28;20085;-70
2022/03/23 01:33:21;;;;;;;58.40;30.70;;;8.40;99.90;;;;;;4977248;28;20042;-70
2022/03/23 01:35:47;;;;;;;58.65;30.65;;;8.30;99.90;;;;;;4986753;28;20069;-70
2022/03/23 01:38:12;;;;;;;63.78;30.77;;;8.30;99.90;;;;;;4985947;28;20108;-70
2022/03/23 01:40:38;;;;;;;63.50;30.40;;;8.30;99.90;;;;;;4984892;28;20390;-71
2022/03/23 01:43:04;;;;;;;61.63;31.98;;;8.30;99.90;;;;;;4974457;28;20027;-70
2022/03/23 01:45:30;;;;;;;65.78;32.13;;;8.30;99.90;;;;;;4973567;28;20102;-71
2022/03/23 01:47:55;;;;;;;57.63;29.90;;;8.30;99.90;;;;;;4981773;28;20396;-71
2022/03/23 01:50:21;;;;;;;58.80;30.40;;;8.30;99.90;;;;;;4990795;28;20030;-71
2022/03/23 01:52:46;;;;;;;60.72;30.88;;;8.20;99.90;;;;;;4978169;28;20041;-71
2022/03/23 01:55:14;;;;;;;60.83;32.35;;;8.20;99.90;;;;;;4985502;28;20030;-71
2022/03/23 01:57:44;;;;;;;60.58;30.90;;;8.20;99.90;;;;;;4973596;28;20365;-70
2022/03/23 02:00:11;;;;;;;60.17;31.10;;;8.10;99.90;;;;;;4985505;28;20034;-71
2022/03/23 02:02:36;;;;;;;59.38;30.63;;;8.10;99.90;;;;;;4990680;28;20037;-70
2022/03/23 02:05:03;;;;;;;63.03;30.98;;;8.10;99.90;;;;;;4980981;28;20432;-71
2022/03/23 02:07:30;;;;;;;63.63;30.45;;;8.10;99.90;;;;;;4973752;28;20109;-71
2022/03/23 02:09:56;;;;;;;62.42;32.25;;;8.00;99.90;;;;;;4972845;28;20023;-71
2022/03/23 02:12:22;;;;;;;60.97;31.65;;;8.00;99.90;;;;;;4985968;28;20026;-71
2022/03/23 02:14:48;;;;;;;62.85;31.13;;;8.00;99.90;;;;;;4986206;28;20037;-71
2022/03/23 02:17:14;;;;;;;64.72;31.90;;;8.00;99.90;;;;;;4978226;28;20023;-71
2022/03/23 02:19:40;;;;;;;60.45;31.25;;;7.90;99.90;;;;;;4991628;28;20108;-71
2022/03/23 02:22:06;;;;;;;60.05;31.05;;;7.90;99.90;;;;;;4991588;28;20493;-71
2022/03/23 02:24:33;;;;;;;62.42;31.63;;;7.90;99.90;;;;;;4974682;28;20070;-72
2022/03/23 02:26:59;;;;;;;67.18;32.08;;;7.90;99.90;;;;;;4973707;28;20413;-71
2022/03/23 02:29:34;;;;;;;61.65;31.38;;;7.90;99.90;;;;;;4980867;28;20030;-71
2022/03/23 02:32:01;;;;;;;59.33;30.65;;;7.80;99.90;;;;;;4972146;28;20042;-72
2022/03/23 02:34:27;;;;;;;67.45;32.53;;;7.80;99.90;;;;;;4983892;28;20383;-70
2022/03/23 02:36:54;;;;;;;66.03;31.85;;;7.80;99.90;;;;;;4982071;28;20043;-71
2022/03/23 02:39:20;;;;;;;62.45;32.17;;;7.80;99.90;;;;;;4972922;28;20058;-71
2022/03/23 02:41:46;;;;;;;65.25;32.92;;;7.80;99.90;;;;;;4979337;28;20026;-71
2022/03/23 02:44:16;;;;;;;59.17;31.17;;;7.80;99.90;;;;;;4990345;28;20022;-71
2022/03/23 02:46:42;;;;;;;67.72;32.53;;;7.70;99.90;;;;;;4991502;28;20081;-71
2022/03/23 02:49:09;;;;;;;62.33;31.35;;;7.70;99.90;;;;;;4981823;28;20118;-71
2022/03/23 02:51:36;;;;;;;60.10;31.50;;;7.60;99.90;;;;;;4955823;28;20031;-71
2022/03/23 03:02:56;;;;;;;62.20;32.38;;;7.60;99.90;;;;;;4972181;28;20054;-71
2022/03/23 03:05:22;;;;;;;59.97;31.00;;;7.50;99.90;;;;;;4971809;28;20023;-71
2022/03/23 03:10:31;;;;;;;62.45;30.70;;;7.50;99.90;;;;;;4981934;28;20044;-71
2022/03/23 03:12:57;;;;;;;67.10;32.05;;;7.40;99.90;;;;;;4979871;28;20035;-72
2022/03/23 03:15:23;;;;;;;63.53;32.67;;;7.40;99.90;;;;;;4985837;28;20386;-72
2022/03/23 03:17:48;;;;;;;61.08;31.08;;;7.40;99.90;;;;;;4984673;28;20037;-71
2022/03/23 03:20:15;;;;;;;63.78;32.13;;;7.40;99.90;;;;;;4971984;28;20050;-71
2022/03/23 03:22:42;;;;;;;64.93;31.52;;;7.30;99.90;;;;;;4978108;28;20042;-70
2022/03/23 03:25:12;;;;;;;61.88;31.40;;;7.30;99.90;;;;;;4990739;28;20057;-71
2022/03/23 03:27:39;;;;;;;64.80;31.45;;;7.30;99.90;;;;;;4989826;28;20057;-71
2022/03/23 03:30:07;;;;;;;69.43;32.00;;;7.20;99.90;;;;;;4970524;28;20022;-70
2022/03/23 03:32:33;;;;;;;64.55;32.22;;;7.30;99.90;;;;;;4956428;28;20082;-71
2022/03/23 03:34:58;;;;;;;63.03;32.10;;;7.20;99.90;;;;;;4973164;28;20027;-71
2022/03/23 03:37:24;;;;;;;62.45;30.90;;;7.20;99.90;;;;;;4972000;28;20065;-71
2022/03/23 03:39:50;;;;;;;69.47;33.20;;;7.20;99.90;;;;;;4971884;28;20483;-71
2022/03/23 03:42:15;;;;;;;64.20;32.05;;;7.20;99.90;;;;;;4971411;28;20463;-72
2022/03/23 03:44:41;;;;;;;59.25;31.67;;;7.20;99.90;;;;;;4971842;28;20023;-71
2022/03/23 03:47:07;;;;;;;62.33;32.40;;;7.20;99.90;;;;;;4966746;28;20031;-71
2022/03/23 03:49:33;;;;;;;63.22;31.77;;;7.10;99.90;;;;;;4990352;28;20490;-71
2022/03/23 03:51:59;;;;;;;62.35;30.65;;;7.10;99.90;;;;;;4990631;28;20026;-71
2022/03/23 03:54:24;;;;;;;68.03;33.03;;;7.10;99.90;;;;;;4990729;28;20030;-71
2022/03/23 03:56:50;;;;;;;64.82;32.38;;;7.10;99.90;;;;;;4979069;28;20132;-71
2022/03/23 03:59:16;;;;;;;63.72;32.08;;;7.00;99.90;;;;;;4973378;28;20035;-71
2022/03/23 04:01:41;;;;;;;63.92;33.38;;;7.00;99.90;;;;;;4988641;28;20522;-71
2022/03/23 04:04:07;;;;;;;61.35;32.08;;;7.00;99.90;;;;;;4971549;28;20062;-70
2022/03/23 04:06:33;;;;;;;62.42;31.90;;;7.00;99.90;;;;;;4971130;28;20089;-71
2022/03/23 04:08:58;;;;;;;62.65;31.02;;;6.90;99.90;;;;;;4972265;28;20027;-71
2022/03/23 04:11:24;;;;;;;63.78;32.53;;;6.90;99.90;;;;;;4971210;28;20503;-71
2022/03/23 04:13:49;;;;;;;62.55;31.65;;;6.90;99.90;;;;;;4973283;28;20058;-71
2022/03/23 04:16:15;;;;;;;60.17;31.08;;;6.90;99.90;;;;;;4983502;28;20138;-71
2022/03/23 04:18:41;;;;;;;68.13;32.47;;;6.90;99.90;;;;;;4974408;28;20041;-71
2022/03/23 04:21:07;;;;;;;60.10;31.20;;;6.80;99.90;;;;;;4975942;28;20035;-71
2022/03/23 04:23:33;;;;;;;67.57;32.65;;;6.80;99.90;;;;;;4975098;28;20026;-71
2022/03/23 04:25:59;;;;;;;65.97;33.28;;;6.80;99.90;;;;;;4975082;28;20070;-71
2022/03/23 04:28:25;;;;;;;64.35;32.67;;;6.80;99.90;;;;;;4991805;28;20026;-71
2022/03/23 04:30:50;;;;;;;65.85;32.28;;;6.80;99.90;;;;;;4993888;28;20106;-71
2022/03/23 04:33:16;;;;;;;64.82;33.50;;;6.70;99.90;;;;;;4962494;28;20114;-72
2022/03/23 04:35:42;;;;;;;62.35;31.80;;;6.70;99.90;;;;;;4974518;28;20483;-71
2022/03/23 04:38:07;;;;;;;65.40;32.75;;;6.70;99.90;;;;;;4978290;28;20497;-71
2022/03/23 04:40:33;;;;;;;66.50;32.08;;;6.70;99.90;;;;;;4987449;28;20034;-71
2022/03/23 04:42:58;;;;;;;62.63;31.35;;;6.60;99.90;;;;;;4993381;28;20037;-71
2022/03/23 04:45:25;;;;;;;60.90;32.03;;;6.60;99.90;;;;;;4993331;28;20110;-71
2022/03/23 04:47:51;;;;;;;61.45;31.58;;;6.60;99.90;;;;;;4992870;28;20069;-71
2022/03/23 04:50:17;;;;;;;61.38;30.23;;;6.60;99.90;;;;;;4993437;28;20026;-71
2022/03/23 04:52:44;;;;;;;58.88;31.73;;;6.60;99.90;;;;;;4991989;28;20125;-71
2022/03/23 04:55:11;;;;;;;62.65;32.42;;;6.50;99.90;;;;;;4993477;28;20022;-71
2022/03/23 04:57:37;;;;;;;66.60;31.98;;;6.50;99.90;;;;;;4993221;28;20030;-71
2022/03/23 05:00:04;;;;;;;59.65;31.60;;;6.50;99.90;;;;;;4993179;28;20470;-71
2022/03/23 05:02:30;;;;;;;57.85;30.40;;;6.50;99.90;;;;;;4991516;28;20041;-71
2022/03/23 05:04:56;;;;;;;63.22;31.73;;;6.40;99.90;;;;;;4993044;28;20429;-71
2022/03/23 05:07:21;;;;;;;64.22;31.88;;;6.40;99.90;;;;;;4991936;28;20419;-71
2022/03/23 05:09:47;;;;;;;62.75;31.17;;;6.40;99.90;;;;;;4991618;28;20092;-71
2022/03/23 05:12:12;;;;;;;58.40;30.40;;;6.40;99.90;;;;;;4992866;28;20030;-71
2022/03/23 05:14:38;;;;;;;66.90;31.58;;;6.40;99.90;;;;;;4966130;28;20058;-71
2022/03/23 05:17:04;;;;;;;62.35;32.00;;;6.30;99.90;;;;;;4974104;28;20038;-71
2022/03/23 05:19:30;;;;;;;63.67;32.13;;;6.30;99.90;;;;;;4972170;28;20058;-71
2022/03/23 05:21:56;;;;;;;59.95;30.92;;;6.30;99.90;;;;;;4989597;28;20081;-71
2022/03/23 05:24:21;;;;;;;65.90;32.70;;;6.30;99.90;;;;;;4974459;28;20046;-71
2022/03/23 05:26:47;;;;;;;67.22;32.15;;;6.30;99.90;;;;;;4974604;28;20054;-71
2022/03/23 05:29:12;;;;;;;65.50;31.20;;;6.20;99.90;;;;;;4984408;28;20072;-72
2022/03/23 05:31:38;;;;;;;60.05;31.38;;;6.20;99.90;;;;;;4992480;28;20490;-71
2022/03/23 05:34:04;;;;;;;70.53;33.67;;;6.20;99.90;;;;;;4968548;28;20483;-70
2022/03/23 05:36:30;;;;;;;60.95;30.95;;;6.20;99.90;;;;;;4991258;28;20022;-70
2022/03/23 05:38:57;;;;;;;60.22;31.33;;;6.20;99.90;;;;;;4987816;28;20025;-71
2022/03/23 05:41:23;;;;;;;64.03;32.05;;;6.20;99.90;;;;;;4991121;28;20027;-71
2022/03/23 05:43:49;;;;;;;59.30;30.48;;;6.20;99.90;;;;;;4990622;28;20173;-71
2022/03/23 05:46:15;;;;;;;71.03;33.65;;;6.20;99.90;;;;;;4992854;28;20109;-72
2022/03/23 05:48:40;;;;;;;62.75;31.90;;;6.10;99.90;;;;;;4988694;28;20065;-71
2022/03/23 05:51:06;;;;;;;67.18;32.88;;;6.10;99.90;;;;;;4973152;28;20127;-72
2022/03/23 05:53:32;;;;;;;64.20;31.98;;;6.10;99.90;;;;;;4978932;28;20498;-71
2022/03/23 05:55:58;;;;;;;70.43;33.63;;;6.10;99.90;;;;;;4973271;28;20113;-71
2022/03/23 05:58:24;;;;;;;65.90;31.92;;;6.10;99.90;;;;;;4975927;28;20476;-71
2022/03/23 06:00:49;;;;;;;60.28;31.10;;;6.10;99.90;;;;;;4979432;28;20030;-71
2022/03/23 06:03:15;;;;;;;66.15;32.17;;;6.10;99.90;;;;;;4985378;28;20089;-71
2022/03/23 06:05:40;;;;;;;62.20;32.72;;;6.10;99.90;;;;;;4986680;28;20026;-71
2022/03/23 06:08:06;;;;;;;62.92;31.13;;;6.10;99.90;;;;;;4987531;28;20014;-71
2022/03/23 06:10:32;;;;;;;62.70;31.23;;;6.10;99.90;;;;;;4985748;28;20443;-71
2022/03/23 06:12:57;;;;;;;66.10;32.83;;;6.10;99.90;;;;;;4985268;28;20045;-71
2022/03/23 06:15:23;;;;;;;59.72;31.02;;;6.10;99.90;;;;;;4986877;28;20018;-71
2022/03/23 06:17:48;;;;;;;63.55;31.85;;;6.10;99.90;;;;;;4967799;28;20023;-71
2022/03/23 06:20:14;;;;;;;63.55;31.60;;;6.10;99.90;;;;;;4990154;28;20509;-72
2022/03/23 06:22:40;;;;;;;66.97;32.97;;;6.10;99.90;;;;;;4978614;28;20038;-72
2022/03/23 06:25:07;;;;;;;68.53;32.65;;;6.10;99.90;;;;;;4982163;28;20031;-73
2022/03/23 06:27:34;;;;;;;63.85;32.25;;;6.10;99.90;;;;;;4981382;28;20031;-73
2022/03/23 06:29:59;;;;;;;64.53;31.60;;;6.20;99.90;;;;;;4983698;28;20022;-72
2022/03/23 06:32:25;;;;;;;65.47;31.90;;;6.20;99.90;;;;;;4983203;28;20037;-73
2022/03/23 06:34:50;;;;;;;64.25;31.02;;;6.20;99.90;;;;;;4984046;28;20478;-72
2022/03/23 06:37:16;;;;;;;66.50;31.38;;;6.30;99.90;;;;;;4986931;28;20026;-72
2022/03/23 06:39:42;;;;;;;72.25;33.38;;;6.30;99.90;;;;;;4989006;28;20054;-73
2022/03/23 06:42:07;;;;;;;63.40;30.75;;;6.30;99.90;;;;;;4991018;28;20030;-73
2022/03/23 06:44:33;;;;;;;71.78;33.47;;;6.30;99.90;;;;;;4981471;28;20046;-76
2022/03/23 06:46:58;;;;;;;66.95;33.65;;;6.40;99.90;;;;;;4983828;28;20022;-72
2022/03/23 06:49:24;;;;;;;69.68;32.55;;;6.50;99.90;;;;;;4991709;28;20026;-72
2022/03/23 06:51:50;;;;;;;72.63;33.88;;;6.50;99.90;;;;;;4986922;28;20126;-71
2022/03/23 06:54:17;;;;;;;66.47;33.38;;;6.60;99.90;;;;;;4988805;28;20058;-72
2022/03/23 06:56:42;;;;;;;62.65;32.53;;;6.70;99.90;;;;;;4990478;28;20532;-73
2022/03/23 06:59:08;;;;;;;65.05;32.60;;;6.70;99.90;;;;;;4990367;28;20022;-72
2022/03/23 07:01:34;;;;;;;61.20;31.98;;;6.70;99.90;;;;;;4985620;28;20077;-72
2022/03/23 07:03:59;;;;;;;68.93;33.95;;;6.80;99.90;;;;;;4978654;28;20126;-73
2022/03/23 07:06:25;;;;;;;64.88;33.60;;;6.80;99.90;;;;;;4979562;28;20414;-73
2022/03/23 07:11:34;;;;;;;65.22;33.60;;;6.90;99.90;;;;;;4980994;28;20819;-72
2022/03/23 07:14:00;;;;;;;72.13;33.55;;;7.00;99.90;;;;;;4983565;28;20023;-72
2022/03/23 07:16:28;;;;;;;71.95;33.75;;;7.00;99.90;;;;;;4978808;28;20467;-72
2022/03/23 07:18:53;;;;;;;68.88;36.30;;;7.10;99.90;;;;;;4979907;28;20113;-72
2022/03/23 07:21:19;;;;;;;72.78;36.20;;;7.10;99.90;;;;;;4984502;28;20157;-72
2022/03/23 07:23:44;;;;;;;71.47;34.67;;;7.20;99.90;;;;;;4987850;28;20402;-72
2022/03/23 07:26:10;;;;;;;71.07;34.13;;;7.30;99.90;;;;;;4982832;28;20045;-72
2022/03/23 07:28:35;;;;;;;67.38;32.45;;;7.30;99.90;;;;;;4981375;28;20467;-72
2022/03/23 07:31:01;;;;;;;69.25;35.70;;;7.40;99.90;;;;;;4977514;28;20375;-72
2022/03/23 07:33:28;;;;;;;68.05;34.10;;;7.50;99.90;;;;;;4975672;28;20403;-72
2022/03/23 07:35:54;;;;;;;66.85;34.15;;;7.50;99.90;;;;;;4990511;28;20035;-72
2022/03/23 07:38:19;;;;;;;67.40;35.03;;;7.60;99.90;;;;;;4987838;28;20487;-72
2022/03/23 07:40:45;;;;;;;68.72;34.28;;;7.70;99.90;;;;;;4984039;28;20031;-72
2022/03/23 07:43:11;;;;;;;71.28;35.10;;;7.80;99.90;;;;;;4985446;28;20040;-72
2022/03/23 07:45:36;;;;;;;71.70;35.03;;;7.90;99.90;;;;;;4985224;28;20031;-72
2022/03/23 07:48:02;;;;;;;70.65;34.50;;;8.00;99.90;;;;;;4991857;28;20048;-72
2022/03/23 07:50:28;;;;;;;67.18;32.97;;;8.10;99.90;;;;;;4974954;28;20218;-72
2022/03/23 07:52:54;;;;;;;67.35;34.58;;;8.20;99.90;;;;;;4975687;28;20149;-72
2022/03/23 07:55:19;;;;;;;62.80;32.95;;;8.30;99.90;;;;;;4980099;28;20037;-72
2022/03/23 07:57:45;;;;;;;70.68;33.75;;;8.50;99.90;;;;;;4970093;28;20026;-72
2022/03/23 08:00:11;;;;;;;66.78;32.53;;;8.60;99.90;;;;;;4983687;28;20030;-72
2022/03/23 08:02:37;;;;;;;68.60;34.10;;;8.70;99.90;;;;;;4992642;28;20026;-71
2022/03/23 08:05:04;;;;;;;65.78;32.90;;;8.80;99.90;;;;;;4986581;28;20027;-72
2022/03/23 08:07:30;;;;;;;69.38;34.42;;;8.90;99.90;;;;;;4989408;28;20038;-72
2022/03/23 08:09:55;;;;;;;63.60;33.60;;;9.00;99.90;;;;;;4985225;28;20022;-71
2022/03/23 08:12:21;;;;;;;65.28;33.45;;;9.20;99.90;;;;;;4986377;28;20425;-72
2022/03/23 08:14:47;;;;;;;66.85;33.15;;;9.40;99.90;;;;;;4974680;28;20034;-72
2022/03/23 08:17:12;;;;;;;72.78;32.15;;;9.50;99.90;;;;;;4988918;28;20029;-72
2022/03/23 08:19:38;;;;;;;60.35;32.08;;;9.60;99.90;;;;;;4975845;28;20507;-72
2022/03/23 08:22:05;;;;;;;60.83;32.13;;;9.90;99.90;;;;;;4957094;28;20047;-73
2022/03/23 08:24:31;;;;;;;61.30;31.95;;;10.00;99.90;;;;;;4987566;28;20031;-72
2022/03/23 08:26:58;;;;;;;60.45;30.67;;;10.20;99.90;;;;;;4986352;28;20077;-73
2022/03/23 08:29:25;;;;;;;61.08;29.70;;;10.30;99.90;;;;;;4976082;28;20133;-73
2022/03/23 08:31:51;;;;;;;49.63;28.00;;;10.50;99.90;;;;;;4980742;28;20456;-73
2022/03/23 08:34:18;;;;;;;55.17;28.45;;;10.70;99.90;;;;;;4987774;28;20637;-70
2022/03/23 08:36:44;;;;;;;53.40;28.90;;;10.80;99.90;;;;;;4992219;28;20100;-71
2022/03/23 08:39:10;;;;;;;49.00;26.50;;;11.00;99.90;;;;;;4986319;28;20031;-71
2022/03/23 08:41:36;;;;;;;52.08;27.88;;;11.10;99.90;;;;;;4992805;28;20434;-70
2022/03/23 08:44:03;;;;;;;54.28;28.75;;;11.30;99.90;;;;;;4985752;28;20041;-70
2022/03/23 08:46:28;;;;;;;50.83;27.95;;;11.50;99.90;;;;;;4974709;28;20511;-70
2022/03/23 08:48:54;;;;;;;50.67;28.55;;;11.60;99.90;;;;;;4987096;28;20074;-70
2022/03/23 08:51:20;;;;;;;52.58;27.30;;;11.80;99.90;;;;;;4993607;28;20497;-71
2022/03/23 08:53:46;;;;;;;53.88;28.02;;;12.00;99.90;;;;;;4989050;28;20040;-70
2022/03/23 08:56:12;;;;;;;58.33;26.88;;;12.10;99.90;;;;;;4986492;28;20031;-70
2022/03/23 08:58:38;;;;;;;54.90;28.90;;;12.30;99.90;;;;;;4981937;28;20109;-72
2022/03/23 09:01:05;;;;;;;52.53;27.77;;;12.50;99.90;;;;;;4991162;28;20042;-72
2022/03/23 09:03:30;;;;;;;56.00;28.42;;;12.70;99.90;;;;;;4992078;28;20098;-72
2022/03/23 09:05:58;;;;;;;48.47;27.30;;;12.90;99.90;;;;;;4988966;28;20134;-72
2022/03/23 09:08:24;;;;;;;50.13;27.38;;;13.00;99.90;;;;;;4991540;28;20070;-72
2022/03/23 09:10:49;;;;;;;47.03;26.80;;;13.20;99.90;;;;;;4992115;28;20581;-72
2022/03/23 09:13:15;;;;;;;55.60;28.33;;;13.30;99.90;;;;;;4987466;28;20402;-72
2022/03/23 09:15:40;;;;;;;60.20;27.75;;;13.50;99.90;;;;;;4974974;28;20033;-72
2022/03/23 09:18:07;;;;;;;50.58;27.80;;;13.60;99.90;;;;;;4981565;28;20027;-73
2022/03/23 09:20:34;;;;;;;51.20;28.08;;;13.80;99.90;;;;;;4992762;28;20553;-72
2022/03/23 09:23:00;;;;;;;56.47;28.35;;;14.00;99.90;;;;;;4980810;28;20439;-73
2022/03/23 09:25:26;;;;;;;50.63;29.00;;;14.30;99.90;;;;;;4975712;28;20038;-73
2022/03/23 09:27:52;;;;;;;48.78;28.17;;;14.40;99.90;;;;;;4974802;28;20033;-72
2022/03/23 09:30:18;;;;;;;50.88;28.27;;;14.50;99.90;;;;;;4987617;28;20023;-72
2022/03/23 09:32:46;;;;;;;52.05;28.38;;;14.70;99.90;;;;;;4977724;28;20478;-73
2022/03/23 09:35:11;;;;;;;47.08;27.52;;;14.80;99.50;;;;;;4974551;28;20030;-73
2022/03/23 09:37:49;;;;;;;48.97;28.48;;;15.00;98.90;;;;;;4974487;28;20030;-73
2022/03/23 09:40:31;;;;;;;49.05;28.23;;;15.10;97.30;;;;;;4975588;28;20090;-73
2022/03/23 09:43:05;;;;;;;50.92;27.30;;;15.20;95.70;;;;;;4974868;28;20037;-73
2022/03/23 09:48:05;;;;;;;50.55;28.75;;;15.40;94.10;;;;;;4992293;28;20030;-73
2022/03/23 09:50:32;;;;;;;50.47;28.88;;;15.50;94.00;;;;;;4990828;28;20034;-73
2022/03/23 09:52:59;;;;;;;48.92;28.05;;;15.60;94.00;;;;;;4977598;28;20022;-73
2022/03/23 09:55:25;;;;;;;48.65;29.02;;;15.80;93.80;;;;;;4973033;28;20043;-73
2022/03/23 09:57:55;;;;;;;49.33;27.55;;;16.10;93.10;;;;;;4955600;28;20037;-73
2022/03/23 10:00:21;;;;;;;53.85;27.95;;;16.20;92.10;;;;;;4975393;28;20081;-73
2022/03/23 10:03:14;;;;;;;49.50;27.63;;;16.30;90.90;;;;;;4992752;28;20038;-73
2022/03/23 10:06:16;;;;;;;44.88;27.52;;;16.40;88.20;;;;;;4976518;28;20419;-73
2022/03/23 10:09:19;;;;;;;52.38;29.10;;;16.60;86.20;;;;;;4973270;28;20093;-73
2022/03/23 10:12:35;;;;;;;45.10;27.17;;;16.70;84.30;;;;;;4991525;28;20129;-73
2022/03/23 10:15:55;;;;;;;49.55;27.77;;;16.80;82.90;;;;;;4992203;28;20534;-73
2022/03/23 10:18:45;;;;;;;47.35;27.95;;;17.00;78.60;;;;;;4912657;29;20036;-73
2022/03/23 10:21:11;;;;;;;49.90;28.83;;;17.10;79.40;;;;;;4897111;29;20044;-73
2022/03/23 10:23:36;;;;;;;51.15;28.13;;;17.20;77.60;;;;;;4912455;29;20397;-73
2022/03/23 10:26:14;;;;;;;49.88;28.75;;;17.30;74.80;;;;;;4899908;29;20099;-73
2022/03/23 10:28:40;;;;;;;46.22;28.20;;;17.40;72.10;;;;;;4893879;29;20069;-73
2022/03/23 10:31:27;;;;;;;46.35;27.85;;;17.40;70.50;;;;;;4899849;29;20028;-73
2022/03/23 10:34:09;;;;;;;47.03;28.20;;;17.40;68.70;;;;;;4896167;29;20040;-73
2022/03/23 10:36:52;;;;;;;50.08;28.95;;;17.50;68.20;;;;;;4883272;29;20039;-73
2022/03/23 10:39:27;;;;;;;48.00;27.75;;;17.60;66.40;;;;;;4893698;29;20051;-73
2022/03/23 10:42:04;;;;;;;47.55;29.40;;;17.70;66.30;;;;;;4902070;29;20095;-73
2022/03/23 10:44:30;;;;;;;45.20;27.83;;;17.70;65.60;;;;;;4897672;29;20786;-73
2022/03/23 10:46:58;;;;;;;46.47;28.05;;;17.80;64.90;;;;;;4910395;29;20431;-73
2022/03/23 10:49:38;;;;;;;43.78;28.23;;;17.80;63.30;;;;;;4912497;29;20036;-72
2022/03/23 10:52:28;;;;;;;44.10;26.90;;;17.70;62.50;;;;;;4942259;28;20053;-73
2022/03/23 10:55:04;;;;;;;47.72;28.45;;;17.80;62.10;;;;;;4972412;28;20037;-72
2022/03/23 10:57:52;;;;;;;44.42;28.02;;;17.90;61.10;;;;;;4980245;28;20141;-72
2022/03/23 11:00:29;;;;;;;50.33;29.95;;;18.00;60.50;;;;;;4981218;28;20034;-72
2022/03/23 11:02:55;;;;;;;47.03;28.77;;;18.10;60.00;;;;;;4973948;28;20033;-72
2022/03/23 11:05:42;;;;;;;50.67;29.23;;;18.20;59.80;;;;;;4976967;28;20026;-72
2022/03/23 11:08:09;;;;;;;51.28;29.90;;;18.20;59.50;;;;;;4982642;28;20038;-72
2022/03/23 11:16:21;;;;;;;48.30;29.20;;;18.50;58.90;;;;;;4991395;28;20141;-72
2022/03/23 11:18:47;;;;;;;49.20;28.98;;;18.60;59.10;;;;;;4989239;28;20030;-72
2022/03/23 11:21:13;;;;;;;51.45;29.60;;;18.70;59.00;;;;;;4991643;28;20031;-72
2022/03/23 11:23:38;;;;;;;52.22;30.00;;;18.80;58.30;;;;;;4996022;28;20445;-72
2022/03/23 11:26:07;;;;;;;49.47;30.15;;;18.80;58.20;;;;;;4992340;28;20515;-72
2022/03/23 11:28:40;;;;;;;48.63;29.73;;;18.90;58.20;;;;;;4995570;28;20045;-72
2022/03/23 11:31:08;;;;;;;48.45;30.20;;;19.00;58.40;;;;;;4976548;28;20084;-72
2022/03/23 11:33:35;;;;;;;51.58;32.15;;;19.10;58.60;;;;;;4995613;28;20030;-72
2022/03/23 11:36:08;;;;;;;48.13;29.13;;;19.30;57.60;;;;;;4988068;28;20034;-72
2022/03/23 11:38:33;;;;;;;52.42;31.48;;;19.30;56.80;;;;;;4969424;28;20037;-72
2022/03/23 11:41:00;;;;;;;46.47;30.35;;;19.30;57.00;;;;;;4983739;28;20426;-72
2022/03/23 11:43:29;;;;;;;48.03;31.33;;;19.40;57.20;;;;;;4983090;28;20090;-72
2022/03/23 11:45:56;;;;;;;55.47;30.52;;;19.40;57.10;;;;;;4977746;28;20081;-72
2022/03/23 11:48:48;;;;;;;50.58;31.48;;;19.50;57.20;;;;;;4974834;28;20031;-73
2022/03/23 11:51:47;;;;;;;53.67;31.50;;;19.60;55.80;;;;;;4969880;28;20506;-72
2022/03/23 11:57:54;;;;;;;51.67;30.95;;;19.70;55.80;;;;;;4993068;28;20390;-73
2022/03/23 12:00:20;;;;;;;;;;;19.80;55.40;;;;;;4977091;28;20245;-72
2022/03/23 12:02:46;;;;;;;50.90;30.85;;;19.90;54.70;;;;;;4980820;28;19916;-72
2022/03/23 12:05:31;;;;;;;50.03;31.70;;;19.90;54.60;;;;;;4982537;28;20031;-72
2022/03/23 12:07:57;;;;;;;48.90;31.50;;;19.90;52.90;;;;;;4988835;28;20064;-73
2022/03/23 12:10:29;;;;;;;55.97;32.63;;;20.00;53.10;;;;;;4992334;28;20022;-72
2022/03/23 12:12:55;;;;;;;50.15;31.38;;;20.10;52.40;;;;;;4994022;28;20040;-73
2022/03/23 12:15:23;;;;;;;52.03;31.08;;;20.10;52.90;;;;;;4992571;28;20449;-73
2022/03/23 12:17:58;;;;;;;50.97;31.63;;;20.10;53.00;;;;;;4989775;28;20037;-73
2022/03/23 12:20:46;;;;;;;47.83;30.87;;;20.30;53.40;;;;;;4988762;28;20066;-73
2022/03/23 12:23:15;;;;;;;48.20;29.92;;;20.40;53.10;;;;;;4986062;28;20027;-76
2022/03/23 12:26:28;;;;;;;48.65;31.52;;;20.50;52.60;;;;;;4984251;28;20114;-74
2022/03/23 12:29:08;;;;;;;50.70;30.58;;;20.70;50.80;;;;;;4891322;29;20066;-74
2022/03/23 12:31:39;;;;;;;51.55;29.58;;;20.80;50.50;;;;;;4886421;29;20491;-73
2022/03/23 12:34:34;;;;;;;53.60;30.23;;;20.90;49.70;;;;;;4887464;29;20036;-75
2022/03/23 12:37:15;;;;;;;50.15;30.70;;;21.00;48.50;;;;;;4870195;29;20421;-73
2022/03/23 12:39:51;;;;;;;49.67;30.35;;;21.10;48.40;;;;;;4877140;29;20037;-73
2022/03/23 12:42:30;;;;;;;51.85;32.08;;;21.10;47.90;;;;;;4887881;29;20088;-74
2022/03/23 12:45:24;;;;;;;52.85;32.70;;;21.20;47.50;;;;;;4896501;29;20192;-75
2022/03/23 12:47:59;;;;;;;47.30;30.85;;;21.30;48.10;;;;;;4888977;29;20059;-78
2022/03/23 12:58:44;;;;;;;51.08;31.52;;;21.50;47.50;;;;;;4890753;29;20116;-77
2022/03/23 13:01:17;;;;;;;47.88;30.45;;;21.60;47.80;;;;;;4889286;29;20033;-76
2022/03/23 13:03:47;;;;;;;48.78;29.40;;;21.60;46.70;;;;;;4970658;28;20061;-76
2022/03/23 13:06:14;;;;;;;46.20;29.02;;;21.60;45.40;;;;;;4978988;28;20072;-76
2022/03/23 13:08:47;;;;;;;42.42;28.27;;;21.60;45.30;;;;;;4985314;28;20038;-75
2022/03/23 13:11:15;;;;;;;47.28;28.80;;;21.60;45.30;;;;;;4988936;28;20370;-75
2022/03/23 13:13:41;;;;;;;49.15;30.08;;;21.50;44.60;;;;;;4979482;28;20122;-76